Air Resources Laboratory banner image
Air Resources Laboratory web site National Oceanic and Atmospheric Administration (NOAA)

ms metar


KBIX 200056Z AUTO 14003KT 10SM CLR 26/24 A2996 RMK AO2 SLP148 T02610239=
KCBM 200056Z AUTO 19008KT 10SM FEW044 27/23 A2993 RMK AO2 LTG DSNT SE SLP136
 T02680228 $=
KGLH 200053Z AUTO 05003KT 10SM -RA SCT120 23/22 A2989 RMK AO2 LTG DSNT NE RAB20
 SLP126 P0000 T02330217 $=
KGPT 200053Z 17004KT 10SM FEW002 27/24 A2996 RMK AO2 SLP144 T02670239=
KGTR 200056Z AUTO 16010KT 10SM SCT034 BKN044 BKN070 26/23 A2995 RMK AO2 LTG
 DSNT SE SLP140 T02610228 PNO $=
KGWO 200053Z AUTO 12003KT 10SM SCT065 BKN080 28/25 A2991 RMK AO2 SLP126
 T02780250=
KHBG 200053Z AUTO 12004KT 10SM FEW003 24/23 A2998 RMK AO2 SLP148 T02390233 TSNO=
KHEZ 200056Z AUTO 16008KT 10SM -RA FEW100 25/23 A2993 RMK AO2 TSE19RAB53 SLP136
 P0000 T02500228=
KHKS 200053Z 17008KT 10SM SCT120 25/23 A2995 RMK AO2 LTG DSNT W AND NW SLP133
 T02500228=
KJAN 200054Z 16007KT 10SM BKN100 25/22 A2994 RMK AO2 LTG DSNT W AND NW SLP136
 T02500217 $=
KLUL 200055Z AUTO 00000KT 10SM CLR 24/24 A2998 RMK AO2 T02400235=
KMCB 200053Z AUTO 15004KT 10SM CLR 24/22 A2997 RMK AO2 SLP143 T02390222=
KMEI 200058Z 17005KT 10SM CLR 24/23 A2997 RMK AO2 RAE04 SLP145 P0000 T02440228=
KNMM 200056Z 00000KT 10SM -RA FEW050 BKN100 BKN120 OVC130 24/23 A2996 RMK AO2
 TSE28 SLP154 T1 SET T02390228 PNO $=
KOLV 200050Z 17006KT 10SM FEW024 BKN047 OVC150 27/24 A2990=
KPIB 200056Z AUTO 00000KT 10SM BKN005 23/23 A2999 RMK AO2 SLP152 T02330228=
KPQL 200053Z AUTO 00000KT 10SM CLR 25/23 A2998 RMK AO2 SLP152 T02500233=
KTUP 200053Z 16016G20KT 10SM VCTS FEW022 BKN080 OVC100 27/23 A2993 RMK AO2 LTG
 DSNT S AND SW SLP132 T02670233 $=
KUOX 200055Z AUTO VRB05KT 10SM SCT039 BKN045 BKN085 26/22 A2994 RMK AO2 LTG
 DSNT E AND SW AND W=
KVKS 200055Z AUTO 16006G12KT 10SM CLR 27/22 A2991 RMK A01=